createdAt,value
2022-12-07T00:00:50.057Z,100.00
2022-12-07T00:01:51.641Z,100.00
2022-12-07T00:02:53.363Z,100.00
2022-12-07T00:04:01.647Z,100.00
2022-12-07T00:05:03.248Z,100.00
2022-12-07T00:06:06.288Z,100.00
2022-12-07T00:07:07.880Z,100.00
2022-12-07T00:08:09.491Z,100.00
2022-12-07T00:09:13.826Z,100.00
2022-12-07T00:10:15.519Z,100.00
2022-12-07T00:11:21.840Z,100.00
2022-12-07T00:12:23.397Z,100.00
2022-12-07T00:13:24.953Z,100.00
2022-12-07T00:14:26.656Z,100.00
2022-12-07T00:15:28.232Z,100.00
2022-12-07T00:16:32.025Z,100.00
2022-12-07T00:17:34.718Z,100.00
2022-12-07T00:18:37.286Z,100.00
2022-12-07T00:19:38.789Z,100.00
2022-12-07T00:20:40.322Z,100.00
2022-12-07T00:21:42.370Z,100.00
2022-12-07T00:22:43.917Z,100.00
2022-12-07T00:23:47.339Z,100.00
2022-12-07T00:24:48.894Z,100.00
2022-12-07T00:25:50.424Z,100.00
2022-12-07T00:26:51.995Z,100.00
2022-12-07T00:27:57.279Z,100.00
2022-12-07T00:29:12.904Z,100.00
2022-12-07T00:30:14.752Z,100.00
2022-12-07T00:31:18.563Z,100.00
2022-12-07T00:32:20.235Z,100.00
2022-12-07T00:33:21.762Z,100.00
2022-12-07T00:34:23.308Z,100.00
2022-12-07T00:35:24.887Z,100.00
2022-12-07T00:36:27.547Z,100.00
2022-12-07T00:37:29.275Z,100.00
2022-12-07T00:38:33.135Z,100.00
2022-12-07T00:39:34.651Z,100.00
2022-12-07T00:40:36.218Z,100.00
2022-12-07T00:41:37.760Z,100.00
2022-12-07T00:42:39.334Z,100.00
2022-12-07T00:43:43.027Z,100.00
2022-12-07T00:44:44.648Z,100.00
2022-12-07T00:45:46.153Z,100.00
2022-12-07T00:46:47.814Z,99.05
2022-12-07T00:47:49.347Z,99.02
2022-12-07T00:48:52.244Z,99.15
2022-12-07T00:49:53.817Z,98.68
2022-12-07T00:50:55.548Z,98.89
2022-12-07T00:51:57.082Z,98.56
2022-12-07T00:52:58.631Z,97.87
2022-12-07T00:54:00.251Z,98.13
2022-12-07T00:55:01.776Z,97.70
2022-12-07T00:56:12.607Z,97.57
2022-12-07T00:57:14.161Z,97.15
2022-12-07T00:58:16.052Z,97.19
2022-12-07T00:59:17.635Z,96.67
2022-12-07T01:00:19.289Z,96.73
2022-12-07T01:01:21.710Z,97.40
2022-12-07T01:02:23.334Z,97.67
2022-12-07T01:03:24.947Z,97.50
2022-12-07T01:04:26.624Z,97.87
2022-12-07T01:05:28.216Z,97.73
2022-12-07T01:06:31.202Z,97.79
2022-12-07T01:07:32.779Z,97.66
2022-12-07T01:08:34.473Z,96.88
2022-12-07T01:09:36.101Z,97.15
2022-12-07T01:10:37.648Z,97.78
2022-12-07T01:11:39.172Z,98.00
2022-12-07T01:12:41.380Z,98.27
2022-12-07T01:13:43.431Z,97.99
2022-12-07T01:14:44.956Z,97.97
2022-12-07T01:15:46.475Z,97.87
2022-12-07T01:16:48.171Z,97.53
2022-12-07T01:17:49.867Z,97.34
2022-12-07T01:18:53.326Z,97.10
2022-12-07T01:19:54.910Z,96.55
2022-12-07T01:21:07.934Z,96.67
2022-12-07T01:22:09.503Z,97.12
2022-12-07T01:23:11.148Z,96.64
2022-12-07T01:24:12.822Z,96.61
2022-12-07T01:25:14.363Z,96.60
2022-12-07T01:26:19.535Z,97.17
2022-12-07T01:27:21.103Z,96.89
2022-12-07T01:28:22.785Z,96.24
2022-12-07T01:29:24.393Z,96.06
2022-12-07T01:30:26.124Z,95.77
2022-12-07T01:31:28.612Z,95.60
2022-12-07T01:32:30.441Z,95.75
2022-12-07T01:33:37.600Z,96.22
2022-12-07T01:34:39.621Z,96.49
2022-12-07T01:35:41.179Z,96.08
2022-12-07T01:36:42.741Z,96.58
2022-12-07T01:37:44.291Z,96.85
2022-12-07T01:38:47.358Z,97.06
2022-12-07T01:39:52.831Z,97.01
2022-12-07T01:40:58.327Z,97.66
2022-12-07T01:41:59.888Z,97.98
2022-12-07T01:43:01.483Z,98.17
2022-12-07T01:44:21.219Z,98.52
2022-12-07T01:45:31.859Z,98.28
2022-12-07T01:46:33.506Z,98.47
2022-12-07T01:47:35.111Z,98.45
2022-12-07T01:48:41.783Z,98.06
2022-12-07T01:49:47.947Z,98.75
2022-12-07T01:50:52.826Z,99.42
2022-12-07T01:52:02.164Z,98.50
2022-12-07T01:53:07.730Z,99.28
2022-12-07T01:54:12.458Z,99.17
2022-12-07T01:55:16.143Z,99.40
2022-12-07T01:56:21.200Z,99.52
2022-12-07T01:57:23.737Z,99.29
2022-12-07T01:58:26.083Z,99.41
2022-12-07T01:59:27.997Z,99.79
2022-12-07T02:00:29.537Z,98.82
2022-12-07T02:01:31.567Z,99.35
2022-12-07T02:02:37.857Z,99.46
2022-12-07T02:03:42.277Z,99.94
2022-12-07T02:04:44.697Z,99.50
2022-12-07T02:05:48.234Z,99.34
2022-12-07T02:06:51.204Z,99.72
2022-12-07T02:07:55.802Z,99.05
2022-12-07T02:08:57.346Z,99.26
2022-12-07T02:09:59.063Z,99.56
2022-12-07T02:11:02.601Z,99.25
2022-12-07T02:12:05.526Z,98.79
2022-12-07T02:13:13.100Z,98.42
2022-12-07T02:14:14.778Z,98.26
2022-12-07T02:15:16.535Z,98.16
2022-12-07T02:16:38.412Z,97.69
2022-12-07T02:17:52.166Z,97.60
2022-12-07T02:19:00.375Z,98.01
2022-12-07T02:20:21.500Z,98.08
2022-12-07T02:21:52.230Z,99.11
2022-12-07T02:23:15.385Z,99.09
2022-12-07T02:24:37.408Z,98.80
2022-12-07T02:26:14.152Z,98.85
2022-12-07T02:27:40.811Z,99.03
2022-12-07T02:28:52.188Z,99.52
2022-12-07T02:30:04.776Z,99.30
2022-12-07T02:31:15.762Z,98.44
2022-12-07T02:32:24.716Z,98.89
2022-12-07T02:33:32.756Z,97.44
2022-12-07T02:34:53.499Z,97.66
2022-12-07T02:36:11.313Z,98.05
2022-12-07T02:37:38.990Z,97.93
2022-12-07T02:38:46.628Z,97.66
2022-12-07T02:40:00.678Z,97.56
2022-12-07T02:41:11.192Z,97.14
2022-12-07T02:42:20.195Z,96.94
2022-12-07T02:43:28.371Z,96.96
2022-12-07T02:44:32.631Z,95.88
2022-12-07T02:45:38.187Z,96.06
2022-12-07T02:46:45.549Z,96.04
2022-12-07T02:47:52.258Z,95.66
2022-12-07T02:48:55.762Z,95.36
2022-12-07T02:49:57.347Z,95.75
2022-12-07T02:50:58.898Z,95.84
2022-12-07T02:52:00.493Z,95.27
2022-12-07T02:53:02.063Z,95.42
2022-12-07T02:54:03.727Z,94.28
2022-12-07T02:55:06.072Z,94.89
2022-12-07T02:56:16.589Z,94.57
2022-12-07T02:57:24.148Z,94.33
2022-12-07T02:58:42.845Z,94.36
2022-12-07T03:00:06.093Z,93.89
2022-12-07T03:01:29.349Z,93.02
2022-12-07T03:02:59.920Z,92.39
2022-12-07T03:04:39.365Z,93.16
2022-12-07T03:05:40.916Z,93.04
2022-12-07T03:06:50.391Z,92.38
2022-12-07T03:08:26.984Z,92.74
2022-12-07T03:09:50.756Z,91.25
2022-12-07T03:11:03.839Z,91.46
2022-12-07T03:12:17.969Z,91.91
2022-12-07T03:13:26.278Z,91.95
2022-12-07T03:14:35.411Z,91.77
2022-12-07T03:15:56.312Z,92.13
2022-12-07T03:17:14.053Z,92.28
2022-12-07T03:18:19.492Z,91.58
2022-12-07T03:19:24.064Z,92.74
2022-12-07T03:20:27.350Z,92.15
2022-12-07T03:21:35.082Z,92.78
2022-12-07T03:22:40.017Z,91.91
2022-12-07T03:23:45.223Z,91.86
2022-12-07T03:24:53.497Z,92.29
2022-12-07T03:26:01.091Z,91.85
2022-12-07T03:27:26.008Z,90.31
2022-12-07T03:28:34.157Z,90.06
2022-12-07T03:29:41.573Z,89.68
2022-12-07T03:30:55.714Z,89.20
2022-12-07T03:32:06.468Z,88.89
2022-12-07T03:33:14.127Z,89.00
2022-12-07T03:34:25.051Z,88.83
2022-12-07T03:35:29.246Z,88.91
2022-12-07T03:36:48.050Z,88.73
2022-12-07T03:37:56.466Z,88.46
2022-12-07T03:39:27.720Z,88.19
2022-12-07T03:40:40.748Z,89.32
2022-12-07T03:41:45.365Z,89.55
2022-12-07T03:42:47.974Z,89.54
2022-12-07T03:43:49.937Z,89.67
2022-12-07T03:44:51.822Z,89.71
2022-12-07T03:46:36.057Z,90.57
2022-12-07T03:47:55.833Z,90.56
2022-12-07T03:49:09.049Z,91.62
2022-12-07T03:50:25.820Z,93.07
2022-12-07T03:51:41.475Z,94.13
2022-12-07T03:53:01.037Z,94.95
2022-12-07T03:54:12.037Z,95.59
2022-12-07T03:55:20.093Z,96.66
2022-12-07T03:56:23.482Z,96.78
2022-12-07T03:57:27.873Z,98.33
2022-12-07T03:58:30.838Z,98.79
2022-12-07T03:59:32.885Z,99.28
2022-12-07T04:00:34.858Z,99.34
2022-12-07T04:01:36.619Z,99.30
2022-12-07T04:02:38.996Z,99.18
2022-12-07T04:03:40.598Z,99.25
2022-12-07T04:04:43.599Z,99.28
2022-12-07T04:05:45.645Z,99.75
2022-12-07T04:06:47.226Z,99.38
2022-12-07T04:07:48.866Z,99.19
2022-12-07T04:08:50.419Z,99.31
2022-12-07T04:09:52.118Z,99.18
2022-12-07T04:10:53.674Z,99.84
2022-12-07T04:11:55.273Z,99.71
2022-12-07T04:12:56.916Z,99.08
2022-12-07T04:14:17.206Z,98.61
2022-12-07T04:15:18.864Z,98.78
2022-12-07T04:16:20.529Z,98.89
2022-12-07T04:17:22.225Z,99.09
2022-12-07T04:18:23.790Z,99.17
2022-12-07T04:19:28.414Z,99.70
2022-12-07T04:20:30.091Z,99.97
2022-12-07T04:21:31.595Z,100.00
2022-12-07T04:22:33.134Z,100.00
2022-12-07T04:23:34.670Z,100.00
2022-12-07T04:24:36.382Z,100.00
2022-12-07T04:25:37.896Z,100.00
2022-12-07T04:26:39.704Z,100.00
2022-12-07T04:27:41.219Z,100.00
2022-12-07T04:28:42.796Z,100.00
2022-12-07T04:29:44.409Z,100.00
2022-12-07T04:30:46.579Z,100.00
2022-12-07T04:31:48.628Z,100.00
2022-12-07T04:32:50.275Z,100.00
2022-12-07T04:33:51.841Z,100.00
2022-12-07T04:34:55.790Z,100.00
2022-12-07T04:35:57.765Z,100.00
2022-12-07T04:36:59.450Z,100.00
2022-12-07T04:38:01.024Z,100.00
2022-12-07T04:39:03.781Z,99.90
2022-12-07T04:40:06.718Z,99.57
2022-12-07T04:41:09.552Z,99.03
2022-12-07T04:42:11.807Z,99.67
2022-12-07T04:43:13.326Z,99.77
2022-12-07T04:44:15.857Z,100.00
2022-12-07T04:45:17.424Z,100.00
2022-12-07T04:46:19.023Z,100.00
2022-12-07T04:47:21.922Z,100.00
2022-12-07T04:48:23.434Z,100.00
2022-12-07T04:49:25.909Z,100.00
2022-12-07T04:50:27.451Z,100.00
2022-12-07T04:51:30.621Z,100.00
2022-12-07T04:52:32.268Z,100.00
2022-12-07T04:53:33.818Z,100.00
2022-12-07T04:54:35.487Z,100.00
2022-12-07T04:55:37.274Z,100.00
2022-12-07T04:56:39.498Z,100.00
2022-12-07T04:57:41.095Z,100.00
2022-12-07T04:58:43.832Z,100.00
2022-12-07T04:59:46.129Z,100.00
2022-12-07T05:00:48.295Z,99.87
2022-12-07T05:01:50.011Z,99.31
2022-12-07T05:02:51.559Z,99.15
2022-12-07T05:03:53.148Z,98.74
2022-12-07T05:04:54.687Z,98.29
2022-12-07T05:05:56.241Z,97.64
2022-12-07T05:06:57.752Z,97.64
2022-12-07T05:07:59.399Z,96.72
2022-12-07T05:09:01.617Z,95.92
2022-12-07T05:10:03.935Z,94.96
2022-12-07T05:11:07.294Z,94.75
2022-12-07T05:12:08.833Z,95.11
2022-12-07T05:13:10.388Z,94.45
2022-12-07T05:14:15.295Z,93.89
2022-12-07T05:15:17.512Z,93.58
2022-12-07T05:16:19.085Z,94.52
2022-12-07T05:17:20.681Z,100.00
2022-12-07T05:18:23.564Z,100.00
2022-12-07T05:19:27.135Z,100.00
2022-12-07T05:20:28.710Z,98.49
2022-12-07T05:21:30.348Z,97.35
2022-12-07T05:22:31.930Z,95.97
2022-12-07T05:23:33.482Z,94.47
2022-12-07T05:24:35.041Z,93.29
2022-12-07T05:25:37.044Z,91.79
2022-12-07T05:26:38.646Z,92.39
2022-12-07T05:27:40.209Z,92.89
2022-12-07T05:28:41.961Z,93.52
2022-12-07T05:29:43.470Z,93.67
2022-12-07T05:30:45.044Z,93.77
2022-12-07T05:31:46.961Z,93.46
2022-12-07T05:32:48.549Z,92.67
2022-12-07T05:33:50.322Z,92.27
2022-12-07T05:34:51.852Z,92.81
2022-12-07T05:35:53.438Z,93.52
2022-12-07T05:36:55.026Z,93.62
2022-12-07T05:37:58.042Z,92.75
2022-12-07T05:38:59.905Z,91.67
2022-12-07T05:40:02.098Z,92.36
2022-12-07T05:41:05.737Z,91.69
2022-12-07T05:42:13.476Z,93.77
2022-12-07T05:43:15.026Z,95.85
2022-12-07T05:44:16.652Z,97.04
2022-12-07T05:45:18.284Z,97.71
2022-12-07T05:46:19.928Z,99.16
2022-12-07T05:47:22.093Z,99.73
2022-12-07T05:48:23.792Z,100.00
2022-12-07T05:49:25.374Z,100.00
2022-12-07T05:50:26.891Z,100.00
2022-12-07T05:51:29.013Z,100.00
2022-12-07T05:52:30.551Z,100.00
2022-12-07T05:53:32.054Z,100.00
2022-12-07T05:54:34.333Z,100.00
2022-12-07T05:55:35.937Z,100.00
2022-12-07T05:56:37.514Z,100.00
2022-12-07T05:57:39.064Z,100.00
2022-12-07T05:58:59.069Z,100.00
2022-12-07T06:00:01.021Z,100.00
2022-12-07T06:01:02.853Z,100.00
2022-12-07T06:02:09.824Z,100.00
2022-12-07T06:03:11.527Z,100.00
2022-12-07T06:04:13.357Z,100.00
2022-12-07T06:05:14.928Z,100.00
2022-12-07T06:06:16.571Z,100.00
2022-12-07T06:07:18.369Z,100.00
2022-12-07T06:08:20.031Z,100.00
2022-12-07T06:09:23.136Z,100.00
2022-12-07T06:10:24.700Z,100.00
2022-12-07T06:11:44.678Z,100.00
2022-12-07T06:12:47.355Z,100.00
2022-12-07T06:13:48.854Z,99.88
2022-12-07T06:14:50.486Z,99.10
2022-12-07T06:15:52.003Z,99.30
2022-12-07T06:16:53.574Z,98.73
2022-12-07T06:17:55.106Z,97.75
2022-12-07T06:18:56.780Z,97.35
2022-12-07T06:19:58.322Z,96.99
2022-12-07T06:20:59.872Z,95.97
2022-12-07T06:22:03.697Z,95.59
2022-12-07T06:23:05.248Z,95.22
2022-12-07T06:24:07.201Z,94.24
2022-12-07T06:25:09.837Z,93.96
2022-12-07T06:26:11.581Z,94.24
2022-12-07T06:27:13.630Z,93.21
2022-12-07T06:28:15.219Z,94.17
2022-12-07T06:29:18.061Z,93.70
2022-12-07T06:30:19.587Z,93.91
2022-12-07T06:31:21.756Z,92.97
2022-12-07T06:32:23.294Z,92.73
2022-12-07T06:33:24.825Z,92.44
2022-12-07T06:34:27.452Z,92.89
2022-12-07T06:35:29.014Z,93.32
2022-12-07T06:36:30.959Z,93.62
2022-12-07T06:37:32.604Z,93.63
2022-12-07T06:38:34.252Z,93.58
2022-12-07T06:39:35.771Z,93.26
2022-12-07T06:40:37.305Z,93.67
2022-12-07T06:41:39.389Z,93.97
2022-12-07T06:42:40.925Z,95.26
2022-12-07T06:43:43.123Z,96.17
2022-12-07T06:44:44.659Z,96.69
2022-12-07T06:45:46.345Z,97.41
2022-12-07T06:46:48.011Z,98.06
2022-12-07T06:47:49.728Z,98.69
2022-12-07T06:48:51.549Z,99.35
2022-12-07T06:49:53.137Z,100.00
2022-12-07T06:50:55.424Z,100.00
2022-12-07T06:51:57.123Z,100.00
2022-12-07T06:52:58.690Z,99.87
2022-12-07T06:54:00.352Z,99.78
2022-12-07T06:55:01.901Z,99.95
2022-12-07T06:56:05.419Z,99.69
2022-12-07T06:57:06.969Z,98.98
2022-12-07T06:58:08.552Z,98.57
2022-12-07T06:59:10.365Z,98.78
2022-12-07T07:00:16.967Z,99.58
2022-12-07T07:01:23.029Z,99.56
2022-12-07T07:02:24.789Z,99.52
2022-12-07T07:03:26.428Z,99.35
2022-12-07T07:04:27.961Z,99.71
2022-12-07T07:05:29.577Z,100.00
2022-12-07T07:06:31.196Z,100.00
2022-12-07T07:07:41.691Z,100.00
2022-12-07T07:08:53.869Z,98.23
2022-12-07T07:09:55.485Z,98.51
2022-12-07T07:10:57.050Z,98.19
2022-12-07T07:11:58.590Z,97.99
2022-12-07T07:13:00.185Z,97.92
2022-12-07T07:14:03.319Z,97.59
2022-12-07T07:15:05.363Z,97.15
2022-12-07T07:16:07.664Z,97.19
2022-12-07T07:17:09.269Z,97.03
2022-12-07T07:18:11.070Z,95.57
2022-12-07T07:19:12.648Z,94.79
2022-12-07T07:20:14.306Z,94.85
2022-12-07T07:21:15.828Z,94.89
2022-12-07T07:22:17.446Z,94.72
2022-12-07T07:23:19.738Z,94.27
2022-12-07T07:24:21.449Z,94.50
2022-12-07T07:25:23.209Z,94.81
2022-12-07T07:26:24.813Z,92.14
2022-12-07T07:27:26.366Z,91.72
2022-12-07T07:28:27.904Z,92.93
2022-12-07T07:29:29.465Z,91.22
2022-12-07T07:30:31.734Z,91.23
2022-12-07T07:31:35.732Z,90.56
2022-12-07T07:32:37.372Z,90.38
2022-12-07T07:33:38.906Z,89.10
2022-12-07T07:34:40.931Z,88.87
2022-12-07T07:35:42.481Z,89.44
2022-12-07T07:36:44.046Z,88.93
2022-12-07T07:37:45.669Z,87.63
2022-12-07T07:38:47.174Z,87.92
2022-12-07T07:39:48.673Z,87.93
2022-12-07T07:40:50.369Z,86.56
2022-12-07T07:41:51.975Z,87.87
2022-12-07T07:42:54.957Z,87.24
2022-12-07T07:43:56.500Z,86.30
2022-12-07T07:44:58.057Z,86.05
2022-12-07T07:45:59.658Z,84.76
2022-12-07T07:47:01.267Z,85.61
2022-12-07T07:48:02.920Z,85.23
2022-12-07T07:49:04.448Z,85.44
2022-12-07T07:50:06.825Z,84.91
2022-12-07T07:51:09.327Z,84.74
2022-12-07T07:52:11.299Z,84.24
2022-12-07T07:53:12.839Z,82.82
2022-12-07T07:54:14.400Z,82.30
2022-12-07T07:55:16.384Z,82.42
2022-12-07T07:56:18.124Z,83.60
2022-12-07T07:57:19.651Z,82.19
2022-12-07T07:58:22.029Z,82.45
2022-12-07T07:59:23.929Z,83.08
2022-12-07T08:00:25.568Z,83.13
2022-12-07T08:01:27.133Z,82.20
2022-12-07T08:02:30.594Z,81.61
2022-12-07T08:03:32.546Z,82.82
2022-12-07T08:04:34.103Z,82.37
2022-12-07T08:05:37.489Z,82.30
2022-12-07T08:06:39.037Z,82.85
2022-12-07T08:07:40.778Z,82.41
2022-12-07T08:08:43.191Z,82.10
2022-12-07T08:09:44.783Z,82.54
2022-12-07T08:10:46.346Z,81.36
2022-12-07T08:11:47.918Z,81.14
2022-12-07T08:13:07.927Z,79.36
2022-12-07T08:14:11.476Z,80.19
2022-12-07T08:15:13.045Z,81.08
2022-12-07T08:16:16.270Z,80.01
2022-12-07T08:17:18.053Z,79.08
2022-12-07T08:18:19.595Z,79.86
2022-12-07T08:19:21.354Z,81.48
2022-12-07T08:20:23.273Z,80.91
2022-12-07T08:21:25.021Z,80.47
2022-12-07T08:22:26.590Z,78.87
2022-12-07T08:23:34.912Z,78.60
2022-12-07T08:24:40.606Z,79.67
2022-12-07T08:25:42.220Z,78.21
2022-12-07T08:26:43.886Z,78.95
2022-12-07T08:27:45.481Z,79.60
2022-12-07T08:28:47.133Z,78.29
2022-12-07T08:29:48.692Z,78.20
2022-12-07T08:30:50.365Z,76.30
2022-12-07T08:31:51.983Z,77.92
2022-12-07T08:32:53.808Z,78.64
2022-12-07T08:33:55.860Z,77.76
2022-12-07T08:34:57.370Z,77.41
2022-12-07T08:36:07.905Z,76.57
2022-12-07T08:37:09.462Z,77.62
2022-12-07T08:38:11.006Z,76.24
2022-12-07T08:40:34.436Z,75.94
2022-12-07T08:41:36.203Z,76.39
2022-12-07T08:42:41.221Z,77.05
2022-12-07T08:43:43.104Z,75.40
2022-12-07T08:44:44.763Z,75.29
2022-12-07T08:45:47.149Z,74.52
2022-12-07T08:46:57.498Z,73.67
2022-12-07T08:48:11.824Z,74.57
2022-12-07T08:49:18.734Z,73.54
2022-12-07T08:50:20.890Z,73.51
2022-12-07T08:51:23.913Z,73.27
2022-12-07T08:52:25.481Z,71.95
2022-12-07T08:53:27.114Z,72.64
2022-12-07T08:54:29.736Z,72.43
2022-12-07T08:55:32.582Z,71.37
2022-12-07T08:56:35.413Z,71.63
2022-12-07T08:57:37.615Z,71.05
2022-12-07T08:58:40.326Z,70.97
2022-12-07T08:59:41.962Z,71.13
2022-12-07T09:00:43.503Z,70.38
2022-12-07T09:01:45.050Z,70.88
2022-12-07T09:02:47.487Z,68.45
2022-12-07T09:03:49.041Z,68.28
2022-12-07T09:04:50.589Z,69.64
2022-12-07T09:05:54.743Z,69.49
2022-12-07T09:06:57.157Z,68.27
2022-12-07T09:08:02.279Z,68.40
2022-12-07T09:09:04.325Z,69.31
2022-12-07T09:10:06.506Z,69.06
2022-12-07T09:11:08.105Z,69.50
2022-12-07T09:12:09.921Z,68.82
2022-12-07T09:13:11.486Z,69.40
2022-12-07T09:14:13.553Z,68.51
2022-12-07T09:15:15.201Z,69.54
2022-12-07T09:16:16.889Z,69.09
2022-12-07T09:17:18.525Z,68.19
2022-12-07T09:18:20.157Z,69.88
2022-12-07T09:19:21.832Z,70.26
2022-12-07T09:20:27.790Z,68.28
2022-12-07T09:21:29.921Z,68.51
2022-12-07T09:22:32.249Z,69.11
2022-12-07T09:23:33.757Z,69.74
2022-12-07T09:24:35.710Z,69.59
2022-12-07T09:25:37.327Z,70.07
2022-12-07T09:26:40.404Z,70.34
2022-12-07T09:27:42.822Z,70.01
2022-12-07T09:28:44.422Z,69.55
2022-12-07T09:29:45.946Z,69.96
2022-12-07T09:31:21.481Z,71.58
2022-12-07T09:32:11.982Z,71.32
2022-12-07T09:33:14.038Z,71.21
2022-12-07T09:34:15.763Z,71.10
2022-12-07T09:35:17.340Z,71.54
2022-12-07T09:36:18.888Z,71.90
2022-12-07T09:37:20.574Z,71.76
2022-12-07T09:38:22.325Z,70.60
2022-12-07T09:39:23.844Z,70.43
2022-12-07T09:40:25.486Z,71.60
2022-12-07T09:41:28.605Z,71.16
2022-12-07T09:42:36.845Z,70.19
2022-12-07T09:43:40.886Z,70.05
2022-12-07T09:44:42.548Z,70.53
2022-12-07T09:45:48.695Z,70.32
2022-12-07T09:46:51.772Z,69.49
2022-12-07T09:47:53.862Z,70.18
2022-12-07T09:48:55.547Z,70.37
2022-12-07T09:50:05.650Z,70.73
2022-12-07T09:51:26.067Z,69.29
2022-12-07T09:52:34.264Z,70.50
2022-12-07T09:53:40.586Z,69.95
2022-12-07T09:54:46.953Z,69.77
2022-12-07T09:55:48.601Z,70.21
2022-12-07T09:56:50.225Z,70.58
2022-12-07T09:57:52.895Z,69.86
2022-12-07T09:59:03.939Z,69.81
2022-12-07T10:00:13.498Z,69.30
2022-12-07T10:01:18.806Z,70.00
2022-12-07T10:02:46.912Z,70.59
2022-12-07T10:04:10.411Z,71.08
2022-12-07T10:05:36.660Z,72.01
2022-12-07T10:06:38.269Z,72.31
2022-12-07T10:07:40.160Z,72.63
2022-12-07T10:08:44.290Z,73.20
2022-12-07T10:09:45.846Z,72.01
2022-12-07T10:10:52.342Z,72.30
2022-12-07T10:12:04.156Z,72.06
2022-12-07T10:13:20.224Z,71.73
2022-12-07T10:14:38.140Z,72.67
2022-12-07T10:15:49.543Z,72.19
2022-12-07T10:16:51.181Z,72.12
2022-12-07T10:17:53.261Z,72.30
2022-12-07T10:18:55.580Z,72.27
2022-12-07T10:20:23.498Z,72.40
2022-12-07T10:21:27.816Z,71.89
2022-12-07T10:22:32.027Z,72.12
2022-12-07T10:23:34.297Z,72.63
2022-12-07T10:24:38.290Z,72.27
2022-12-07T10:25:41.677Z,71.84
2022-12-07T10:26:48.992Z,72.16
2022-12-07T10:28:04.408Z,72.38
2022-12-07T10:29:24.139Z,72.17
2022-12-07T10:30:25.723Z,71.39
2022-12-07T10:31:27.542Z,71.74
2022-12-07T10:32:35.118Z,71.87
2022-12-07T10:33:39.408Z,71.65
2022-12-07T10:34:43.392Z,71.92
2022-12-07T10:35:46.782Z,71.92
2022-12-07T10:36:48.327Z,72.33
2022-12-07T10:37:52.018Z,72.67
2022-12-07T10:38:59.536Z,72.22
2022-12-07T10:40:01.054Z,72.53
2022-12-07T10:41:08.688Z,72.56
2022-12-07T10:42:25.547Z,71.66
2022-12-07T10:43:27.138Z,72.01
2022-12-07T10:44:34.479Z,71.85
2022-12-07T10:46:03.704Z,71.32
2022-12-07T10:47:39.618Z,72.73
2022-12-07T10:48:54.029Z,72.13
2022-12-07T10:49:55.566Z,70.74
2022-12-07T10:51:06.286Z,70.99
2022-12-07T10:52:07.758Z,70.93
2022-12-07T10:53:41.986Z,70.73
2022-12-07T10:54:53.111Z,70.95
2022-12-07T10:56:15.842Z,70.44
2022-12-07T10:57:35.504Z,71.17
2022-12-07T10:58:54.542Z,71.18
2022-12-07T11:00:10.576Z,71.03
2022-12-07T11:01:27.287Z,70.91
2022-12-07T11:03:13.827Z,70.30
2022-12-07T11:04:36.714Z,70.56
2022-12-07T11:05:47.476Z,70.46
2022-12-07T11:06:51.964Z,70.90
2022-12-07T11:08:05.595Z,70.97
2022-12-07T11:10:06.573Z,69.88
2022-12-07T11:11:17.141Z,69.27
2022-12-07T11:12:56.470Z,69.46
2022-12-07T11:14:15.693Z,69.69
2022-12-07T11:15:29.946Z,69.24
2022-12-07T11:16:31.458Z,69.10
2022-12-07T11:17:41.654Z,69.26
2022-12-07T11:19:01.912Z,69.58
2022-12-07T11:20:17.639Z,68.58
2022-12-07T11:21:29.216Z,69.47
2022-12-07T11:22:36.693Z,69.36
2022-12-07T11:23:47.340Z,69.35
2022-12-07T11:25:32.482Z,69.72
2022-12-07T11:27:01.217Z,69.85
2022-12-07T11:28:14.830Z,70.18
2022-12-07T11:29:47.372Z,70.95
2022-12-07T11:31:16.761Z,70.61
2022-12-07T11:32:21.296Z,70.64
2022-12-07T11:33:37.587Z,70.74
2022-12-07T11:34:45.850Z,71.12
2022-12-07T11:36:31.454Z,70.58
2022-12-07T11:37:38.187Z,71.30
2022-12-07T11:38:53.364Z,71.87
2022-12-07T11:40:05.985Z,72.00
2022-12-07T11:41:14.320Z,72.01
2022-12-07T11:42:34.630Z,72.30
2022-12-07T11:43:36.818Z,72.69
2022-12-07T11:45:02.422Z,72.47
2022-12-07T11:46:12.170Z,72.54
2022-12-07T11:47:21.293Z,73.41
2022-12-07T11:48:41.645Z,72.83
2022-12-07T11:49:56.214Z,72.94
2022-12-07T11:51:03.304Z,72.65
2022-12-07T11:52:12.498Z,72.65
2022-12-07T11:53:39.344Z,72.69
2022-12-07T11:54:44.798Z,72.83
2022-12-07T11:56:01.155Z,73.02
2022-12-07T11:57:18.603Z,72.66
2022-12-07T11:58:46.690Z,72.08
2022-12-07T11:59:52.681Z,71.92
2022-12-07T12:01:12.518Z,72.63
2022-12-07T12:02:25.238Z,71.85
2022-12-07T12:03:35.119Z,72.15
2022-12-07T12:05:03.063Z,71.33
2022-12-07T12:06:04.789Z,72.03
2022-12-07T12:10:07.623Z,71.56
2022-12-07T12:11:21.227Z,71.44
2022-12-07T12:15:53.668Z,70.31
2022-12-07T12:17:33.798Z,69.84
2022-12-07T12:18:46.963Z,70.12
2022-12-07T12:20:07.029Z,70.27
2022-12-07T12:21:15.169Z,69.76
2022-12-07T12:22:23.350Z,69.91
2022-12-07T12:23:56.242Z,68.87
2022-12-07T12:24:58.382Z,68.78
2022-12-07T12:26:03.935Z,68.25
2022-12-07T12:27:16.660Z,67.68
2022-12-07T12:28:27.274Z,68.33
2022-12-07T12:29:41.167Z,68.92
2022-12-07T12:30:42.736Z,68.97
2022-12-07T12:31:45.614Z,68.55
2022-12-07T12:32:47.260Z,68.03
2022-12-07T12:33:54.936Z,68.97
2022-12-07T12:35:34.074Z,69.30
2022-12-07T12:36:41.755Z,68.36
2022-12-07T12:37:45.334Z,69.14
2022-12-07T12:38:51.350Z,69.06
2022-12-07T12:40:15.666Z,67.86
2022-12-07T12:41:48.147Z,68.08
2022-12-07T12:42:54.148Z,67.21
2022-12-07T12:43:55.693Z,68.08
2022-12-07T12:45:22.728Z,67.67
2022-12-07T12:46:53.455Z,68.19
2022-12-07T12:48:01.587Z,68.36
2022-12-07T12:49:21.404Z,67.77
2022-12-07T12:50:25.495Z,67.83
2022-12-07T12:51:41.443Z,67.57
2022-12-07T12:52:47.328Z,67.19
2022-12-07T12:53:50.709Z,67.35
2022-12-07T12:55:04.359Z,68.13
2022-12-07T12:56:34.413Z,67.27
2022-12-07T12:57:37.220Z,67.49
2022-12-07T12:58:42.246Z,68.29
2022-12-07T12:59:59.856Z,68.29
2022-12-07T13:01:37.485Z,67.49
2022-12-07T13:02:49.415Z,67.34
2022-12-07T13:03:56.701Z,67.94
2022-12-07T13:05:03.080Z,68.73
2022-12-07T13:06:20.742Z,69.03
2022-12-07T13:07:40.817Z,69.31
2022-12-07T13:08:43.563Z,68.79
2022-12-07T13:09:46.408Z,68.82
2022-12-07T13:10:49.789Z,69.12
2022-12-07T13:11:58.966Z,68.47
2022-12-07T13:13:01.708Z,68.32
2022-12-07T13:14:41.403Z,68.20
2022-12-07T13:15:53.863Z,69.33
2022-12-07T13:16:55.402Z,68.81
2022-12-07T13:18:01.571Z,68.58
2022-12-07T13:19:03.163Z,68.78
2022-12-07T13:20:14.149Z,69.69
2022-12-07T13:21:20.168Z,69.09
2022-12-07T13:22:39.885Z,69.34
2022-12-07T13:23:44.671Z,69.52
2022-12-07T13:24:47.390Z,68.80
2022-12-07T13:26:18.556Z,68.06
2022-12-07T13:27:20.462Z,67.80
2022-12-07T13:28:27.248Z,68.82
2022-12-07T13:29:37.855Z,69.20
2022-12-07T13:30:48.606Z,67.53
2022-12-07T13:31:53.246Z,66.39
2022-12-07T13:32:58.306Z,66.69
2022-12-07T13:34:00.280Z,66.99
2022-12-07T13:35:34.272Z,68.24
2022-12-07T13:36:39.992Z,69.66
2022-12-07T13:37:41.681Z,69.76
2022-12-07T13:38:51.193Z,69.60
2022-12-07T13:39:56.516Z,69.02
2022-12-07T13:41:05.582Z,69.24
2022-12-07T13:42:27.362Z,69.20
2022-12-07T13:43:29.422Z,69.63
2022-12-07T13:44:41.963Z,69.71
2022-12-07T13:45:49.945Z,70.12
2022-12-07T13:47:07.199Z,70.29
2022-12-07T13:48:16.294Z,70.88
2022-12-07T13:49:24.225Z,71.54
2022-12-07T13:50:28.252Z,71.77
2022-12-07T13:51:35.316Z,71.98
2022-12-07T13:52:44.950Z,72.29
2022-12-07T13:54:01.107Z,72.50
2022-12-07T13:55:15.617Z,72.82
2022-12-07T13:56:17.262Z,73.66
2022-12-07T13:57:19.246Z,72.14
2022-12-07T13:58:21.184Z,72.06
2022-12-07T13:59:26.378Z,72.54
2022-12-07T14:00:30.704Z,73.28
2022-12-07T14:01:33.038Z,73.74
2022-12-07T14:02:39.920Z,74.44
2022-12-07T14:03:44.208Z,74.86
2022-12-07T14:04:45.811Z,75.20
2022-12-07T14:05:47.553Z,75.73
2022-12-07T14:06:52.899Z,76.52
2022-12-07T14:08:00.843Z,76.50
2022-12-07T14:09:10.127Z,77.20
2022-12-07T14:10:34.583Z,77.05
2022-12-07T14:11:36.516Z,77.09
2022-12-07T14:12:38.182Z,77.83
2022-12-07T14:13:45.832Z,77.79
2022-12-07T14:14:49.965Z,77.91
2022-12-07T14:15:53.192Z,77.63
2022-12-07T14:17:12.647Z,78.34
2022-12-07T14:18:36.983Z,78.73
2022-12-07T14:19:50.536Z,79.26
2022-12-07T14:20:52.042Z,79.44